createdAt,value
2018-05-25T00:00:24.837Z,100.00
2018-05-25T00:02:55.909Z,100.00
2018-05-25T00:08:06.291Z,100.00
2018-05-25T00:10:39.298Z,100.00
2018-05-25T00:13:12.101Z,100.00
2018-05-25T00:15:44.262Z,100.00
2018-05-25T00:18:16.870Z,100.00
2018-05-25T00:20:49.523Z,100.00
2018-05-25T00:25:57.942Z,100.00
2018-05-25T00:28:30.765Z,100.00
2018-05-25T00:31:03.465Z,100.00
2018-05-25T00:33:35.924Z,100.00
2018-05-25T00:36:11.090Z,100.00
2018-05-25T00:38:44.084Z,100.00
2018-05-25T00:41:17.052Z,100.00
2018-05-25T00:43:49.889Z,100.00
2018-05-25T00:46:23.248Z,100.00
2018-05-25T00:48:55.858Z,100.00
2018-05-25T00:51:28.302Z,100.00
2018-05-25T00:54:00.862Z,100.00
2018-05-25T00:56:33.560Z,100.00
2018-05-25T00:59:06.889Z,100.00
2018-05-25T01:01:40.865Z,100.00
2018-05-25T01:04:13.743Z,100.00
2018-05-25T01:06:46.085Z,100.00
2018-05-25T01:09:18.358Z,100.00
2018-05-25T01:11:50.863Z,100.00
2018-05-25T01:14:23.231Z,100.00
2018-05-25T01:16:55.558Z,100.00
2018-05-25T01:19:28.853Z,100.00
2018-05-25T01:22:01.401Z,100.00
2018-05-25T01:24:33.920Z,100.00
2018-05-25T01:27:06.557Z,100.00
2018-05-25T01:29:39.806Z,100.00
2018-05-25T01:34:48.221Z,100.00
2018-05-25T01:37:21.420Z,100.00
2018-05-25T01:39:53.947Z,100.00
2018-05-25T01:42:26.934Z,100.00
2018-05-25T01:44:59.827Z,100.00
2018-05-25T01:47:32.783Z,100.00
2018-05-25T01:50:05.708Z,100.00
2018-05-25T01:52:38.448Z,100.00
2018-05-25T01:55:11.375Z,100.00
2018-05-25T02:00:58.409Z,100.00
2018-05-25T02:03:31.006Z,100.00
2018-05-25T02:06:05.500Z,100.00
2018-05-25T02:08:38.054Z,100.00
2018-05-25T02:14:14.527Z,100.00
2018-05-25T02:16:46.524Z,100.00
2018-05-25T02:19:19.723Z,100.00
2018-05-25T02:21:52.244Z,100.00
2018-05-25T02:24:25.633Z,100.00
2018-05-25T02:26:58.440Z,100.00
2018-05-25T02:29:31.574Z,100.00
2018-05-25T02:32:04.016Z,100.00
2018-05-25T02:34:37.331Z,100.00
2018-05-25T02:37:10.231Z,100.00
2018-05-25T02:39:42.991Z,100.00
2018-05-25T02:42:14.957Z,100.00
2018-05-25T02:44:48.622Z,100.00
2018-05-25T02:47:22.778Z,100.00
2018-05-25T02:49:55.744Z,100.00
2018-05-25T02:52:28.852Z,100.00
2018-05-25T02:55:02.012Z,100.00
2018-05-25T02:57:34.674Z,100.00
2018-05-25T03:00:08.499Z,100.00
2018-05-25T03:05:45.003Z,100.00
2018-05-25T03:08:17.259Z,100.00
2018-05-25T03:10:51.326Z,100.00
2018-05-25T03:13:23.318Z,100.00
2018-05-25T03:18:32.036Z,100.00
2018-05-25T03:21:04.776Z,100.00
2018-05-25T03:23:36.788Z,100.00
2018-05-25T03:26:10.642Z,100.00
2018-05-25T03:28:42.604Z,100.00
2018-05-25T03:31:15.481Z,100.00
2018-05-25T03:33:47.421Z,100.00
2018-05-25T03:36:19.661Z,100.00
2018-05-25T03:41:30.900Z,100.00
2018-05-25T03:44:03.404Z,100.00
2018-05-25T03:46:34.938Z,100.00
2018-05-25T03:49:07.165Z,100.00
2018-05-25T03:51:39.198Z,100.00
2018-05-25T03:54:13.834Z,100.00
2018-05-25T03:56:45.798Z,100.00
2018-05-25T03:59:34.869Z,100.00
2018-05-25T04:02:07.717Z,100.00
2018-05-25T04:04:39.436Z,100.00
2018-05-25T04:07:11.923Z,100.00
2018-05-25T04:09:45.089Z,100.00
2018-05-25T04:12:18.747Z,100.00
2018-05-25T04:14:51.213Z,100.00
2018-05-25T04:19:59.878Z,100.00
2018-05-25T04:22:33.318Z,100.00
2018-05-25T04:25:05.660Z,100.00
2018-05-25T04:27:38.121Z,100.00
2018-05-25T04:30:09.903Z,100.00
2018-05-25T04:32:40.869Z,100.00
2018-05-25T04:35:14.342Z,100.00
2018-05-25T04:37:47.216Z,100.00
2018-05-25T04:40:16.247Z,100.00
2018-05-25T04:42:45.553Z,100.00
2018-05-25T04:45:15.539Z,100.00
2018-05-25T04:47:44.588Z,100.00
2018-05-25T04:50:14.720Z,100.00
2018-05-25T04:52:43.794Z,100.00
2018-05-25T04:55:14.184Z,100.00
2018-05-25T04:57:43.230Z,100.00
2018-05-25T05:05:29.668Z,100.00
2018-05-25T05:08:00.926Z,100.00
2018-05-25T05:10:29.990Z,100.00
2018-05-25T05:13:01.605Z,100.00
2018-05-25T05:15:31.789Z,100.00
2018-05-25T05:18:04.716Z,100.00
2018-05-25T05:23:06.180Z,100.00
2018-05-25T05:25:35.797Z,100.00
2018-05-25T05:28:08.086Z,100.00
2018-05-25T05:30:39.721Z,100.00
2018-05-25T05:33:12.171Z,100.00
2018-05-25T05:35:57.796Z,100.00
2018-05-25T05:38:38.274Z,100.00
2018-05-25T05:41:24.554Z,100.00
2018-05-25T05:44:04.902Z,100.00
2018-05-25T05:46:50.472Z,100.00
2018-05-25T05:49:33.846Z,100.00
2018-05-25T05:52:07.173Z,100.00
2018-05-25T05:54:39.660Z,100.00
2018-05-25T05:57:11.577Z,100.00
2018-05-25T05:59:43.647Z,100.00
2018-05-25T06:02:16.631Z,100.00
2018-05-25T06:07:24.463Z,100.00
2018-05-25T06:09:56.949Z,100.00
2018-05-25T06:12:28.882Z,100.00
2018-05-25T06:17:37.886Z,100.00
2018-05-25T06:20:09.999Z,100.00
2018-05-25T06:22:42.769Z,100.00
2018-05-25T06:25:14.880Z,100.00
2018-05-25T06:27:48.483Z,100.00
2018-05-25T06:30:20.870Z,100.00
2018-05-25T06:35:28.821Z,100.00
2018-05-25T06:38:01.492Z,100.00
2018-05-25T06:40:34.228Z,100.00
2018-05-25T06:43:06.833Z,100.00
2018-05-25T06:45:37.909Z,100.00
2018-05-25T06:48:10.998Z,100.00
2018-05-25T06:53:22.748Z,100.00
2018-05-25T06:55:55.712Z,100.00
2018-05-25T06:58:26.778Z,100.00
2018-05-25T07:00:59.701Z,100.00
2018-05-25T07:03:31.972Z,100.00
2018-05-25T07:06:05.159Z,100.00
2018-05-25T07:08:37.334Z,100.00
2018-05-25T07:11:10.775Z,100.00
2018-05-25T07:13:44.428Z,99.50
2018-05-25T07:18:53.621Z,98.48
2018-05-25T07:21:25.576Z,97.91
2018-05-25T07:24:00.322Z,96.91
2018-05-25T07:26:32.304Z,93.66
2018-05-25T07:31:41.161Z,93.09
2018-05-25T07:34:13.735Z,94.07
2018-05-25T07:36:46.698Z,92.96
2018-05-25T07:39:20.773Z,88.24
2018-05-25T07:44:33.174Z,88.96
2018-05-25T07:47:05.517Z,85.47
2018-05-25T07:49:36.485Z,89.22
2018-05-25T07:52:08.788Z,87.22
2018-05-25T07:54:41.266Z,87.74
2018-05-25T07:57:13.259Z,85.63
2018-05-25T07:59:46.412Z,84.23
2018-05-25T08:02:20.436Z,84.16
2018-05-25T08:04:52.341Z,85.03
2018-05-25T08:07:23.801Z,82.10
2018-05-25T08:09:55.498Z,81.63
2018-05-25T08:12:28.667Z,81.78
2018-05-25T08:15:01.511Z,83.65
2018-05-25T08:17:33.827Z,81.57
2018-05-25T08:22:42.209Z,79.06
2018-05-25T08:27:53.275Z,76.62
2018-05-25T08:30:26.107Z,79.20
2018-05-25T08:32:58.124Z,77.64
2018-05-25T08:35:29.452Z,78.96
2018-05-25T08:38:03.381Z,77.68
2018-05-25T08:40:36.429Z,79.76
2018-05-25T08:45:46.120Z,77.60
2018-05-25T08:48:18.011Z,73.20
2018-05-25T08:50:50.035Z,77.16
2018-05-25T08:53:28.294Z,73.11
2018-05-25T08:56:02.132Z,73.19
2018-05-25T08:58:34.916Z,72.79
2018-05-25T09:01:06.562Z,72.93
2018-05-25T09:03:43.103Z,73.15
2018-05-25T09:06:20.740Z,69.08
2018-05-25T09:08:56.678Z,69.88
2018-05-25T09:11:29.522Z,68.86
2018-05-25T09:14:03.774Z,70.60
2018-05-25T09:16:35.672Z,66.66
2018-05-25T09:19:08.529Z,64.43
2018-05-25T09:21:46.218Z,61.11
2018-05-25T09:24:20.398Z,55.26
2018-05-25T09:26:54.994Z,46.97
2018-05-25T09:29:27.908Z,51.56
2018-05-25T09:32:02.266Z,48.71
2018-05-25T09:34:36.359Z,49.03
2018-05-25T09:37:09.549Z,46.86
2018-05-25T09:39:42.862Z,47.09
2018-05-25T09:42:16.459Z,45.71
2018-05-25T09:44:50.658Z,43.62
2018-05-25T09:49:59.866Z,39.15
2018-05-25T09:52:32.603Z,38.56
2018-05-25T09:55:06.801Z,36.71
2018-05-25T09:57:41.333Z,38.93
2018-05-25T10:00:14.858Z,36.78
2018-05-25T10:02:48.558Z,35.04
2018-05-25T10:05:22.179Z,33.87
2018-05-25T10:07:56.985Z,31.94
2018-05-25T10:10:30.126Z,35.99
2018-05-25T10:13:02.909Z,35.62
2018-05-25T10:15:36.578Z,37.11
2018-05-25T10:18:10.183Z,31.60
2018-05-25T10:20:42.671Z,33.18
2018-05-25T10:23:16.316Z,29.93
2018-05-25T10:25:48.533Z,31.46
2018-05-25T10:28:20.331Z,32.74
2018-05-25T10:30:52.400Z,30.91
2018-05-25T10:33:24.704Z,28.79
2018-05-25T10:35:57.769Z,32.41
2018-05-25T10:41:07.739Z,29.87
2018-05-25T10:43:39.244Z,29.00
2018-05-25T10:46:11.726Z,25.96
2018-05-25T10:48:44.034Z,27.54
2018-05-25T10:51:18.433Z,27.07
2018-05-25T10:53:51.335Z,29.39
2018-05-25T10:56:23.937Z,28.74
2018-05-25T10:58:56.568Z,27.02
2018-05-25T11:01:29.476Z,25.71
2018-05-25T11:04:01.816Z,24.17
2018-05-25T11:06:34.183Z,25.10
2018-05-25T11:09:06.503Z,26.05
2018-05-25T11:11:39.318Z,24.01
2018-05-25T11:14:11.832Z,23.99
2018-05-25T11:16:44.361Z,24.80
2018-05-25T11:19:15.180Z,26.38
2018-05-25T11:21:48.065Z,24.98
2018-05-25T11:24:20.182Z,24.58
2018-05-25T11:29:28.669Z,27.77
2018-05-25T11:32:01.376Z,25.48
2018-05-25T11:34:33.274Z,23.74
2018-05-25T11:37:04.386Z,24.84
2018-05-25T11:39:35.996Z,23.64
2018-05-25T11:42:08.284Z,21.40
2018-05-25T11:44:39.605Z,20.95
2018-05-25T11:47:10.380Z,22.93
2018-05-25T11:49:43.219Z,21.87
2018-05-25T11:52:14.745Z,21.54
2018-05-25T11:54:47.312Z,22.10
2018-05-25T11:57:19.043Z,22.42
2018-05-25T11:59:51.800Z,20.30
2018-05-25T12:02:24.310Z,21.89
2018-05-25T12:04:56.677Z,22.01
2018-05-25T12:07:28.081Z,21.86
2018-05-25T12:09:58.867Z,21.03
2018-05-25T12:12:29.777Z,19.43
2018-05-25T12:15:03.218Z,20.90
2018-05-25T12:17:35.324Z,20.78
2018-05-25T12:22:46.877Z,20.00
2018-05-25T12:25:18.381Z,19.77
2018-05-25T12:27:51.242Z,20.68
2018-05-25T12:30:23.221Z,19.82
2018-05-25T12:32:54.940Z,19.97
2018-05-25T12:35:26.937Z,19.99
2018-05-25T12:38:00.724Z,21.21
2018-05-25T12:40:31.705Z,21.79
2018-05-25T12:43:05.177Z,21.18
2018-05-25T12:45:37.521Z,21.75
2018-05-25T12:48:10.283Z,21.84
2018-05-25T12:50:42.881Z,23.74
2018-05-25T12:53:16.884Z,21.21
2018-05-25T12:55:49.718Z,21.40
2018-05-25T12:58:22.653Z,22.36
2018-05-25T13:00:55.878Z,22.63
2018-05-25T13:03:28.149Z,22.71
2018-05-25T13:06:00.504Z,21.12
2018-05-25T13:08:33.215Z,19.79
2018-05-25T13:11:05.752Z,24.49
2018-05-25T13:13:38.559Z,22.61
2018-05-25T13:16:09.976Z,22.75
2018-05-25T13:21:18.373Z,22.33
2018-05-25T13:23:50.906Z,23.91
2018-05-25T13:29:01.901Z,22.16
2018-05-25T13:31:33.876Z,22.00
2018-05-25T13:34:06.883Z,22.29
2018-05-25T13:36:39.595Z,21.92
2018-05-25T13:39:12.237Z,21.38
2018-05-25T13:41:45.701Z,21.04
2018-05-25T13:46:54.595Z,20.14
2018-05-25T13:49:27.457Z,19.69
2018-05-25T13:51:59.672Z,21.12
2018-05-25T13:54:31.536Z,23.03
2018-05-25T13:57:03.345Z,25.24
2018-05-25T14:02:14.502Z,21.45
2018-05-25T14:04:46.941Z,21.49
2018-05-25T14:07:19.017Z,22.74
2018-05-25T14:09:51.485Z,25.27
2018-05-25T14:12:24.833Z,26.46
2018-05-25T14:14:58.051Z,26.28
2018-05-25T14:20:09.452Z,22.74
2018-05-25T14:22:41.235Z,23.76
2018-05-25T14:25:13.936Z,22.22
2018-05-25T14:27:46.384Z,21.44
2018-05-25T14:30:18.877Z,23.09
2018-05-25T14:32:50.630Z,21.62
2018-05-25T14:35:23.234Z,21.89
2018-05-25T14:37:54.313Z,21.02
2018-05-25T14:43:03.532Z,21.90
2018-05-25T14:45:36.151Z,21.35
2018-05-25T14:50:47.133Z,20.84
2018-05-25T14:55:55.986Z,19.16
2018-05-25T15:03:44.151Z,19.12
2018-05-25T15:08:53.455Z,21.47
2018-05-25T15:11:26.500Z,25.63
2018-05-25T15:13:59.028Z,25.27
2018-05-25T15:16:30.551Z,24.26
2018-05-25T15:19:04.661Z,22.55
2018-05-25T15:21:37.979Z,21.74
2018-05-25T15:24:10.900Z,20.50
2018-05-25T15:29:20.127Z,19.38
2018-05-25T15:31:52.857Z,18.43
2018-05-25T15:34:26.562Z,18.05
2018-05-25T15:36:58.837Z,22.32
2018-05-25T15:42:07.485Z,20.54
2018-05-25T15:44:40.505Z,21.93
2018-05-25T15:47:12.634Z,22.89
2018-05-25T15:49:44.727Z,25.17
2018-05-25T15:52:17.066Z,26.97
2018-05-25T15:54:49.589Z,27.35
2018-05-25T15:57:22.683Z,27.27
2018-05-25T15:59:55.200Z,32.53
2018-05-25T16:05:04.562Z,35.89
2018-05-25T16:10:14.610Z,29.68
2018-05-25T16:12:47.296Z,34.39
2018-05-25T16:15:19.945Z,36.67
2018-05-25T16:17:52.340Z,42.78
2018-05-25T16:20:26.263Z,41.17
2018-05-25T16:22:58.964Z,41.54
2018-05-25T16:30:45.961Z,42.33
2018-05-25T16:33:18.325Z,41.74
2018-05-25T16:35:51.334Z,49.71
2018-05-25T16:38:24.326Z,47.60
2018-05-25T16:40:56.844Z,50.73
2018-05-25T16:43:28.891Z,49.95
2018-05-25T16:46:01.533Z,46.35
2018-05-25T16:48:33.336Z,47.93
2018-05-25T16:51:06.271Z,49.58
2018-05-25T16:53:38.881Z,52.60
2018-05-25T16:58:47.569Z,51.03
2018-05-25T17:01:20.119Z,52.06
2018-05-25T17:03:52.650Z,50.27
2018-05-25T17:06:25.320Z,52.09
2018-05-25T17:11:32.991Z,56.42
2018-05-25T17:14:05.898Z,55.61
2018-05-25T17:16:37.533Z,53.43
2018-05-25T17:19:10.541Z,51.14
2018-05-25T17:21:43.160Z,54.65
2018-05-25T17:24:14.941Z,56.83
2018-05-25T17:26:45.806Z,52.63
2018-05-25T17:29:18.343Z,52.58
2018-05-25T17:31:49.164Z,50.33
2018-05-25T17:34:22.924Z,53.59
2018-05-25T17:36:54.850Z,53.13
2018-05-25T17:39:26.468Z,51.81
2018-05-25T17:41:57.962Z,51.73
2018-05-25T17:44:29.948Z,49.88
2018-05-25T17:47:01.286Z,51.86
2018-05-25T17:49:33.170Z,52.96
2018-05-25T17:54:40.749Z,51.03
2018-05-25T17:57:13.164Z,50.74
2018-05-25T17:59:44.274Z,54.83
2018-05-25T18:04:53.772Z,51.33
2018-05-25T18:07:32.569Z,52.32
2018-05-25T18:10:06.244Z,51.56
2018-05-25T18:12:37.995Z,54.87
2018-05-25T18:15:10.250Z,54.05
2018-05-25T18:17:42.601Z,54.24
2018-05-25T18:20:14.847Z,54.28
2018-05-25T18:22:46.720Z,54.65
2018-05-25T18:25:19.642Z,55.16
2018-05-25T18:27:52.284Z,56.52
2018-05-25T18:30:25.226Z,56.68
2018-05-25T18:32:57.527Z,56.71
2018-05-25T18:35:28.672Z,57.70
2018-05-25T18:38:01.055Z,59.28
2018-05-25T18:40:32.284Z,56.78
2018-05-25T18:43:04.309Z,56.32
2018-05-25T18:45:35.701Z,57.57
2018-05-25T18:50:44.938Z,60.80
2018-05-25T18:53:17.010Z,59.60
2018-05-25T18:55:48.866Z,58.44
2018-05-25T18:58:20.734Z,61.88
2018-05-25T19:00:52.235Z,62.97
2018-05-25T19:03:25.091Z,62.19
2018-05-25T19:05:58.249Z,61.98
2018-05-25T19:08:29.894Z,64.10
2018-05-25T19:11:02.701Z,63.45
2018-05-25T19:13:34.779Z,61.81
2018-05-25T19:18:46.631Z,61.91
2018-05-25T19:21:18.534Z,63.77
2018-05-25T19:23:51.612Z,63.70
2018-05-25T19:29:01.189Z,63.37
2018-05-25T19:31:32.808Z,62.86
2018-05-25T19:34:04.502Z,63.50
2018-05-25T19:36:36.545Z,64.73
2018-05-25T19:44:24.051Z,69.87
2018-05-25T19:46:56.388Z,70.16
2018-05-25T19:49:29.556Z,68.83
2018-05-25T19:52:01.281Z,71.10
2018-05-25T19:54:32.049Z,75.63
2018-05-25T19:57:03.021Z,75.77
2018-05-25T19:59:35.673Z,78.03
2018-05-25T20:02:07.601Z,79.77
2018-05-25T20:04:38.794Z,77.18
2018-05-25T20:07:10.749Z,74.18
2018-05-25T20:09:43.341Z,80.43
2018-05-25T20:12:15.899Z,76.64
2018-05-25T20:14:48.359Z,78.60
2018-05-25T20:17:20.860Z,76.66
2018-05-25T20:22:29.020Z,75.65
2018-05-25T20:25:00.532Z,75.67
2018-05-25T20:27:33.436Z,79.88
2018-05-25T20:30:04.788Z,79.42
2018-05-25T20:32:36.304Z,76.12
2018-05-25T20:35:07.233Z,77.13
2018-05-25T20:37:39.006Z,78.72
2018-05-25T20:40:10.684Z,78.01
2018-05-25T20:42:44.339Z,84.63
2018-05-25T20:45:15.869Z,82.95
2018-05-25T20:47:47.029Z,85.31
2018-05-25T20:50:18.932Z,87.00
2018-05-25T20:52:51.043Z,89.39
2018-05-25T20:55:23.577Z,86.16
2018-05-25T20:57:56.314Z,82.43
2018-05-25T21:00:28.284Z,79.79
2018-05-25T21:03:00.495Z,83.95
2018-05-25T21:08:13.038Z,86.25
2018-05-25T21:10:44.683Z,86.60
2018-05-25T21:13:17.467Z,84.48
2018-05-25T21:15:49.133Z,84.00
2018-05-25T21:18:21.216Z,82.60
2018-05-25T21:20:54.720Z,85.46
2018-05-25T21:23:26.375Z,84.93
2018-05-25T21:25:58.389Z,83.27
2018-05-25T21:28:30.324Z,84.51
2018-05-25T21:33:39.713Z,84.96
2018-05-25T21:36:13.248Z,87.15
2018-05-25T21:38:44.846Z,87.37
2018-05-25T21:41:16.675Z,89.63
2018-05-25T21:46:26.047Z,87.19
2018-05-25T21:48:59.615Z,87.26
2018-05-25T21:51:31.193Z,88.73
2018-05-25T21:54:02.699Z,88.38
2018-05-25T21:56:45.455Z,86.46
2018-05-25T22:01:56.616Z,84.11
2018-05-25T22:04:28.413Z,88.35
2018-05-25T22:06:59.561Z,91.99
2018-05-25T22:09:33.425Z,92.66
2018-05-25T22:12:06.901Z,89.67
2018-05-25T22:14:36.231Z,88.78
2018-05-25T22:17:05.281Z,92.03
2018-05-25T22:19:34.328Z,89.20
2018-05-25T22:22:04.029Z,92.51
2018-05-25T22:24:33.986Z,89.97
2018-05-25T22:27:03.177Z,86.69
2018-05-25T22:29:32.408Z,86.44
2018-05-25T22:32:02.455Z,89.45
2018-05-25T22:37:21.117Z,89.15
2018-05-25T22:40:03.082Z,92.82
2018-05-25T22:42:57.375Z,90.60
2018-05-25T22:45:50.550Z,92.92
2018-05-25T22:48:45.344Z,91.98
2018-05-25T22:56:37.891Z,89.17
2018-05-25T22:59:19.260Z,88.37
2018-05-25T23:04:43.146Z,88.34
2018-05-25T23:07:25.757Z,88.73
2018-05-25T23:10:08.886Z,90.63
2018-05-25T23:12:52.714Z,93.95
2018-05-25T23:15:34.379Z,88.96
2018-05-25T23:18:04.113Z,93.28
2018-05-25T23:20:33.194Z,90.71
2018-05-25T23:25:40.663Z,93.32
2018-05-25T23:31:01.306Z,93.80
2018-05-25T23:33:44.645Z,92.82
2018-05-25T23:36:26.798Z,91.15
2018-05-25T23:41:42.819Z,91.82
2018-05-25T23:44:25.563Z,90.86
2018-05-25T23:47:08.799Z,89.48
2018-05-25T23:49:50.873Z,91.41
2018-05-25T23:55:13.929Z,92.38
2018-05-25T23:57:43.986Z,92.85
